Putnam Valley, New York
Current Conditions -  °F | °C
As of 1:45 PM on Tuesday 27 Jan 2015 (Local Time) from KSWF Reporting Station
Light Snow Light Snow  
Wind Chill: 12°   Ceiling: 2000
Heat Index: 23°   Visibility: 5mi
Dew Point: 18°   Wind: 12mph
Humidity: 80%   Direction: 10°N
Pressure: 29.69"   Gusts: NA
Location:  41.37°N, 73.84°W
Report Text: KSWF 271845Z 01010KT 5SM -SN BR BKN020 OVC040 M05/M08 A2969
Loading
Personal Weather Stations






























Interactive Weather Map New forecast layout! Learn more

10-Day Weather Forecast

Advertisements
Track Severe Weather on mobile